createdAt,value
2023-04-06T00:02:04.114Z,-0.05
2023-04-06T00:04:31.438Z,-0.09
2023-04-06T00:06:58.531Z,-0.11
2023-04-06T00:09:25.897Z,-0.16
2023-04-06T00:11:52.987Z,-0.08
2023-04-06T00:14:20.401Z,-0.06
2023-04-06T00:16:47.822Z,-0.05
2023-04-06T00:19:15.267Z,-0.12
2023-04-06T00:21:42.551Z,-0.04
2023-04-06T00:24:09.915Z,-0.09
2023-04-06T00:26:40.034Z,-0.09
2023-04-06T00:29:10.821Z,-0.10
2023-04-06T00:31:38.514Z,-0.06
2023-04-06T00:34:09.943Z,-0.05
2023-04-06T00:36:37.023Z,-0.07
2023-04-06T00:39:07.223Z,-0.08
2023-04-06T00:41:34.517Z,-0.20
2023-04-06T00:44:01.642Z,-0.24
2023-04-06T00:46:29.408Z,-0.23
2023-04-06T00:48:58.004Z,-0.25
2023-04-06T00:51:26.303Z,-0.26
2023-04-06T00:53:53.364Z,-0.31
2023-04-06T00:56:20.898Z,-0.29
2023-04-06T00:58:54.074Z,-0.38
2023-04-06T01:01:21.356Z,-0.41
2023-04-06T01:03:51.592Z,-0.40
2023-04-06T01:06:23.258Z,-0.39
2023-04-06T01:08:58.688Z,-0.42
2023-04-06T01:11:27.755Z,-0.45
2023-04-06T01:13:55.752Z,-0.45
2023-04-06T01:16:43.505Z,-0.45
2023-04-06T01:19:16.779Z,-0.42
2023-04-06T01:21:51.664Z,-0.49
2023-04-06T01:24:45.370Z,-0.53
2023-04-06T01:27:20.501Z,-0.55
2023-04-06T01:30:03.928Z,-0.58
2023-04-06T01:32:43.182Z,-0.59
2023-04-06T01:35:13.817Z,-0.62
2023-04-06T01:37:48.278Z,-0.65
2023-04-06T01:40:23.849Z,-0.68
2023-04-06T01:42:53.363Z,-0.71
2023-04-06T01:45:30.564Z,-0.71
2023-04-06T01:48:04.979Z,-0.68
2023-04-06T01:50:32.549Z,-0.71
2023-04-06T01:52:59.936Z,-0.63
2023-04-06T01:55:29.360Z,-0.71
2023-04-06T01:58:19.241Z,-0.73
2023-04-06T02:00:46.763Z,-0.76
2023-04-06T02:03:15.768Z,-0.79
2023-04-06T02:05:43.607Z,-0.84
2023-04-06T02:08:23.680Z,-0.86
2023-04-06T02:10:50.814Z,-0.82
2023-04-06T02:13:27.458Z,-0.92
2023-04-06T02:15:56.112Z,-0.98
2023-04-06T02:18:23.772Z,-0.99
2023-04-06T02:20:56.843Z,-1.00
2023-04-06T02:23:27.739Z,-1.04
2023-04-06T02:25:56.909Z,-1.11
2023-04-06T02:28:24.659Z,-1.17
2023-04-06T02:30:51.977Z,-1.23
2023-04-06T02:33:20.871Z,-1.24
2023-04-06T02:35:48.733Z,-1.24
2023-04-06T02:38:16.444Z,-1.24
2023-04-06T02:40:44.193Z,-1.25
2023-04-06T02:43:21.611Z,-1.27
2023-04-06T02:45:51.699Z,-1.31
2023-04-06T02:48:21.247Z,-1.36
2023-04-06T02:50:50.333Z,-1.41
2023-04-06T02:53:17.637Z,-1.42
2023-04-06T02:55:47.537Z,-1.44
2023-04-06T02:58:15.426Z,-1.48
2023-04-06T03:00:50.510Z,-1.50
2023-04-06T03:03:17.895Z,-1.42
2023-04-06T03:05:46.444Z,-1.46
2023-04-06T03:08:15.050Z,-1.55
2023-04-06T03:10:51.107Z,-1.63
2023-04-06T03:13:19.384Z,-1.61
2023-04-06T03:15:52.620Z,-1.56
2023-04-06T03:18:24.722Z,-1.60
2023-04-06T03:20:56.522Z,-1.62
2023-04-06T03:23:29.118Z,-1.65
2023-04-06T03:26:00.310Z,-1.62
2023-04-06T03:28:27.825Z,-1.66
2023-04-06T03:31:04.541Z,-1.69
2023-04-06T03:33:52.986Z,-1.75
2023-04-06T03:36:29.889Z,-1.80
2023-04-06T03:38:58.173Z,-1.88
2023-04-06T03:41:30.391Z,-1.90
2023-04-06T03:44:03.151Z,-1.82
2023-04-06T03:46:31.758Z,-1.82
2023-04-06T03:48:59.955Z,-1.93
2023-04-06T03:51:28.758Z,-1.93
2023-04-06T03:53:56.133Z,-1.90
2023-04-06T03:56:23.343Z,-1.92
2023-04-06T03:58:51.836Z,-1.96
2023-04-06T04:01:21.756Z,-1.97
2023-04-06T04:03:52.269Z,-2.00
2023-04-06T04:06:19.571Z,-2.02
2023-04-06T04:08:46.930Z,-2.06
2023-04-06T04:11:14.139Z,-2.05
2023-04-06T04:13:41.346Z,-2.03
2023-04-06T04:16:10.034Z,-2.04
2023-04-06T04:18:37.695Z,-2.08
2023-04-06T04:21:07.398Z,-2.13
2023-04-06T04:23:36.710Z,-2.14
2023-04-06T04:26:04.571Z,-2.17
2023-04-06T04:28:31.843Z,-2.20
2023-04-06T04:31:02.061Z,-2.16
2023-04-06T04:33:32.859Z,-2.20
2023-04-06T04:36:05.943Z,-2.23
2023-04-06T04:38:39.170Z,-2.24
2023-04-06T04:41:09.519Z,-2.21
2023-04-06T04:43:39.291Z,-2.24
2023-04-06T04:46:08.026Z,-2.23
2023-04-06T04:48:46.686Z,-2.22
2023-04-06T04:51:13.999Z,-2.23
2023-04-06T04:54:00.430Z,-2.22
2023-04-06T04:56:31.453Z,-2.24
2023-04-06T04:59:09.668Z,-2.26
2023-04-06T05:01:53.675Z,-2.23
2023-04-06T05:04:31.850Z,-2.19
2023-04-06T05:07:13.631Z,-2.03
2023-04-06T05:09:42.544Z,-1.97
2023-04-06T05:12:10.086Z,-1.88
2023-04-06T05:14:46.246Z,-1.81
2023-04-06T05:17:16.548Z,-1.61
2023-04-06T05:19:46.123Z,-1.56
2023-04-06T05:22:18.537Z,-1.50
2023-04-06T05:24:58.439Z,-1.44
2023-04-06T05:27:26.346Z,-1.26
2023-04-06T05:30:00.508Z,-1.23
2023-04-06T05:32:29.446Z,-0.98
2023-04-06T05:34:59.583Z,-0.55
2023-04-06T05:37:27.180Z,-0.48
2023-04-06T05:39:54.263Z,-0.39
2023-04-06T05:42:23.512Z,-0.05
2023-04-06T05:44:54.340Z,0.73
2023-04-06T05:47:22.151Z,0.99
2023-04-06T05:49:55.986Z,1.65
2023-04-06T05:52:32.313Z,2.31
2023-04-06T05:55:02.701Z,2.56
2023-04-06T05:57:34.136Z,2.06
2023-04-06T06:00:04.663Z,1.65
2023-04-06T06:02:47.201Z,1.31
2023-04-06T06:05:19.936Z,1.30
2023-04-06T06:07:49.898Z,1.09
2023-04-06T06:10:18.270Z,0.53
2023-04-06T06:12:45.620Z,0.26
2023-04-06T06:15:15.281Z,0.53
2023-04-06T06:17:46.127Z,1.59
2023-04-06T06:20:13.509Z,2.29
2023-04-06T06:22:41.234Z,2.65
2023-04-06T06:25:12.420Z,3.31
2023-04-06T06:27:39.603Z,3.55
2023-04-06T06:30:07.715Z,3.11
2023-04-06T06:32:38.417Z,3.14
2023-04-06T06:35:05.828Z,3.55
2023-04-06T06:37:33.949Z,4.38
2023-04-06T06:40:02.704Z,4.84
2023-04-06T06:42:32.223Z,5.06
2023-04-06T06:45:22.727Z,4.63
2023-04-06T06:47:51.305Z,3.49
2023-04-06T06:50:22.206Z,2.92
2023-04-06T06:52:49.750Z,2.49
2023-04-06T06:55:20.196Z,2.50
2023-04-06T06:57:47.537Z,2.21
2023-04-06T07:00:15.646Z,2.07
2023-04-06T07:02:44.402Z,2.04
2023-04-06T07:05:26.846Z,2.35
2023-04-06T07:07:57.511Z,2.46
2023-04-06T07:10:27.033Z,2.57
2023-04-06T07:12:57.823Z,2.54
2023-04-06T07:15:25.811Z,2.59
2023-04-06T07:17:53.491Z,2.67
2023-04-06T07:20:25.754Z,2.88
2023-04-06T07:22:53.227Z,2.97
2023-04-06T07:25:21.163Z,3.03
2023-04-06T07:27:52.618Z,3.09
2023-04-06T07:30:20.493Z,3.10
2023-04-06T07:32:49.011Z,3.31
2023-04-06T07:35:17.444Z,3.30
2023-04-06T07:37:44.935Z,3.45
2023-04-06T07:40:14.057Z,3.70
2023-04-06T07:42:42.453Z,3.81
2023-04-06T07:45:11.242Z,3.91
2023-04-06T07:47:41.556Z,3.92
2023-04-06T07:50:10.054Z,4.05
2023-04-06T07:52:41.911Z,4.04
2023-04-06T07:55:13.851Z,4.30
2023-04-06T07:57:41.152Z,4.58
2023-04-06T08:00:12.552Z,4.82
2023-04-06T08:02:40.533Z,5.42
2023-04-06T08:05:08.286Z,5.93
2023-04-06T08:07:39.034Z,6.08
2023-04-06T08:10:06.442Z,6.56
2023-04-06T08:12:36.574Z,6.86
2023-04-06T08:15:06.917Z,7.05
2023-04-06T08:17:35.125Z,7.16
2023-04-06T08:20:04.695Z,7.27
2023-04-06T08:22:37.396Z,7.87
2023-04-06T08:25:10.682Z,8.04
2023-04-06T08:27:43.625Z,8.47
2023-04-06T08:30:17.434Z,8.55
2023-04-06T08:32:47.621Z,8.32
2023-04-06T08:35:14.844Z,8.41
2023-04-06T08:37:43.245Z,8.65
2023-04-06T08:40:16.122Z,9.05
2023-04-06T08:42:50.648Z,9.38
2023-04-06T08:45:23.213Z,9.28
2023-04-06T08:47:59.253Z,9.07
2023-04-06T08:50:31.568Z,9.67
2023-04-06T08:52:59.818Z,9.64
2023-04-06T08:55:28.744Z,9.40
2023-04-06T08:57:56.962Z,9.38
2023-04-06T09:00:26.255Z,9.31
2023-04-06T09:02:58.816Z,8.97
2023-04-06T09:05:26.825Z,8.83
2023-04-06T09:07:54.146Z,9.08
2023-04-06T09:10:26.142Z,9.78
2023-04-06T09:13:06.327Z,10.33
2023-04-06T09:15:36.577Z,10.38
2023-04-06T09:18:06.993Z,10.28
2023-04-06T09:20:40.265Z,10.34
2023-04-06T09:23:21.664Z,10.69
2023-04-06T09:25:51.786Z,10.53
2023-04-06T09:28:22.076Z,9.82
2023-04-06T09:30:50.679Z,9.51
2023-04-06T09:33:26.737Z,9.19
2023-04-06T09:35:55.354Z,9.58
2023-04-06T09:38:25.443Z,9.83
2023-04-06T09:41:01.239Z,10.10
2023-04-06T09:43:29.551Z,10.21
2023-04-06T09:45:59.292Z,10.45
2023-04-06T09:48:31.212Z,10.44
2023-04-06T09:51:07.552Z,10.92
2023-04-06T09:53:40.368Z,10.91
2023-04-06T09:56:17.840Z,10.74
2023-04-06T09:58:54.901Z,11.47
2023-04-06T10:01:24.667Z,11.50
2023-04-06T10:04:11.430Z,11.00
2023-04-06T10:06:39.926Z,10.58
2023-04-06T10:09:09.197Z,10.84
2023-04-06T10:11:39.512Z,11.75
2023-04-06T10:14:08.637Z,11.04
2023-04-06T10:16:37.334Z,12.42
2023-04-06T10:19:30.439Z,12.99
2023-04-06T10:22:04.067Z,12.38
2023-04-06T10:24:34.837Z,13.73
2023-04-06T10:27:03.447Z,13.82
2023-04-06T10:29:51.205Z,13.93
2023-04-06T10:32:18.573Z,13.83
2023-04-06T10:34:51.695Z,13.75
2023-04-06T10:37:20.308Z,13.58
2023-04-06T10:40:04.073Z,13.96
2023-04-06T10:42:45.382Z,13.92
2023-04-06T10:45:23.739Z,13.77
2023-04-06T10:48:00.594Z,13.70
2023-04-06T10:50:33.421Z,13.16
2023-04-06T10:53:02.005Z,13.40
2023-04-06T10:55:30.281Z,13.76
2023-04-06T10:57:57.458Z,13.71
2023-04-06T11:00:26.095Z,13.34
2023-04-06T11:03:05.377Z,12.82
2023-04-06T11:05:38.766Z,11.57
2023-04-06T11:08:14.058Z,10.57
2023-04-06T11:10:41.413Z,10.39
2023-04-06T11:13:14.066Z,10.46
2023-04-06T11:15:44.373Z,9.92
2023-04-06T11:18:12.543Z,9.76
2023-04-06T11:20:40.152Z,10.24
2023-04-06T11:23:08.417Z,10.30
2023-04-06T11:25:36.275Z,10.34
2023-04-06T11:28:03.410Z,10.23
2023-04-06T11:30:31.455Z,10.09
2023-04-06T11:33:03.659Z,9.99
2023-04-06T11:35:33.695Z,10.73
2023-04-06T11:38:06.846Z,11.70
2023-04-06T11:40:34.273Z,12.43
2023-04-06T11:43:01.393Z,12.56
2023-04-06T11:45:28.692Z,11.78
2023-04-06T11:48:03.223Z,11.55
2023-04-06T11:50:36.766Z,11.13
2023-04-06T11:53:04.244Z,10.52
2023-04-06T11:55:39.423Z,10.14
2023-04-06T11:58:08.008Z,10.02
2023-04-06T12:00:35.843Z,9.96
2023-04-06T12:03:02.986Z,9.83
2023-04-06T12:05:30.208Z,9.58
2023-04-06T12:08:00.121Z,9.39
2023-04-06T12:10:33.131Z,9.36
2023-04-06T12:13:02.756Z,9.41
2023-04-06T12:15:30.320Z,10.33
2023-04-06T12:17:59.275Z,11.16
2023-04-06T12:20:30.910Z,11.61
2023-04-06T12:22:57.964Z,11.74
2023-04-06T12:25:25.188Z,11.96
2023-04-06T12:27:54.729Z,12.22
2023-04-06T12:30:22.162Z,11.57
2023-04-06T12:32:53.626Z,10.84
2023-04-06T12:35:22.124Z,10.21
2023-04-06T12:37:49.470Z,10.02
2023-04-06T12:40:19.894Z,10.20
2023-04-06T12:42:47.880Z,10.80
2023-04-06T12:45:14.983Z,11.16
2023-04-06T12:47:42.365Z,11.26
2023-04-06T12:50:09.920Z,11.30
2023-04-06T12:52:37.591Z,11.49
2023-04-06T12:55:07.878Z,11.33
2023-04-06T12:57:35.038Z,11.02
2023-04-06T13:00:02.987Z,10.77
2023-04-06T13:02:31.847Z,10.51
2023-04-06T13:04:59.139Z,10.49
2023-04-06T13:07:26.919Z,10.36
2023-04-06T13:09:54.958Z,10.19
2023-04-06T13:12:22.094Z,10.28
2023-04-06T13:14:54.425Z,10.22
2023-04-06T13:17:22.176Z,10.19
2023-04-06T13:19:49.391Z,10.08
2023-04-06T13:22:17.026Z,9.94
2023-04-06T13:24:44.222Z,10.08
2023-04-06T13:27:12.490Z,10.51
2023-04-06T13:29:39.722Z,10.83
2023-04-06T13:32:06.951Z,11.01
2023-04-06T13:34:34.202Z,11.46
2023-04-06T13:37:01.301Z,11.84
2023-04-06T13:39:28.483Z,11.20
2023-04-06T13:41:57.182Z,10.79
2023-04-06T13:44:24.421Z,10.98
2023-04-06T13:46:51.570Z,11.61
2023-04-06T13:49:18.660Z,12.12
2023-04-06T13:51:45.922Z,11.78
2023-04-06T13:54:15.566Z,11.66
2023-04-06T13:56:42.746Z,11.26
2023-04-06T13:59:09.865Z,10.67
2023-04-06T14:01:38.502Z,10.01
2023-04-06T14:04:05.741Z,10.28
2023-04-06T14:06:32.907Z,10.73
2023-04-06T14:09:00.600Z,11.11
2023-04-06T14:11:28.045Z,11.50
2023-04-06T14:13:57.793Z,11.89
2023-04-06T14:16:25.803Z,11.34
2023-04-06T14:18:53.347Z,11.36
2023-04-06T14:21:21.127Z,11.40
2023-04-06T14:23:48.262Z,11.52
2023-04-06T14:26:16.224Z,10.85
2023-04-06T14:28:46.344Z,10.44
2023-04-06T14:31:23.564Z,10.02
2023-04-06T14:33:51.301Z,9.87
2023-04-06T14:36:18.648Z,10.16
2023-04-06T14:38:48.179Z,10.52
2023-04-06T14:41:20.698Z,10.67
2023-04-06T14:43:48.554Z,10.81
2023-04-06T14:46:19.488Z,10.92
2023-04-06T14:48:49.683Z,10.84
2023-04-06T14:51:17.742Z,10.56
2023-04-06T14:53:48.297Z,10.55
2023-04-06T14:56:27.172Z,10.56
2023-04-06T14:58:54.840Z,10.38
2023-04-06T15:01:22.286Z,10.16
2023-04-06T15:03:53.867Z,10.08
2023-04-06T15:06:21.910Z,9.98
2023-04-06T15:08:52.508Z,9.81
2023-04-06T15:11:19.624Z,10.03
2023-04-06T15:13:47.194Z,9.72
2023-04-06T15:16:15.614Z,9.68
2023-04-06T15:18:42.810Z,9.70
2023-04-06T15:21:12.084Z,9.73
2023-04-06T15:23:39.189Z,9.80
2023-04-06T15:26:06.354Z,9.78
2023-04-06T15:28:34.011Z,9.84
2023-04-06T15:31:04.254Z,9.88
2023-04-06T15:33:31.523Z,9.97
2023-04-06T15:35:58.645Z,9.86
2023-04-06T15:38:25.933Z,9.83
2023-04-06T15:40:53.171Z,9.86
2023-04-06T15:43:20.376Z,9.81
2023-04-06T15:45:47.973Z,9.95
2023-04-06T15:48:18.105Z,9.97
2023-04-06T15:50:45.297Z,9.84
2023-04-06T15:53:12.829Z,9.84
2023-04-06T15:55:41.331Z,9.83
2023-04-06T15:58:08.520Z,9.84
2023-04-06T16:00:35.833Z,10.08
2023-04-06T16:03:03.290Z,10.23
2023-04-06T16:05:34.866Z,9.85
2023-04-06T16:08:10.787Z,9.71
2023-04-06T16:10:38.035Z,9.67
2023-04-06T16:13:05.132Z,9.52
2023-04-06T16:15:32.268Z,9.63
2023-04-06T16:17:59.855Z,9.43
2023-04-06T16:20:27.029Z,9.45
2023-04-06T16:22:56.941Z,9.38
2023-04-06T16:25:24.094Z,9.18
2023-04-06T16:27:54.264Z,9.19
2023-04-06T16:30:21.512Z,9.38
2023-04-06T16:32:51.782Z,9.40
2023-04-06T16:35:20.525Z,9.27
2023-04-06T16:37:52.746Z,9.23
2023-04-06T16:40:20.722Z,8.99
2023-04-06T16:42:48.366Z,8.80
2023-04-06T16:45:17.918Z,8.73
2023-04-06T16:47:45.385Z,8.65
2023-04-06T16:50:12.491Z,8.58
2023-04-06T16:52:39.596Z,8.40
2023-04-06T16:55:07.504Z,8.22
2023-04-06T16:57:34.699Z,8.11
2023-04-06T17:00:02.376Z,7.91
2023-04-06T17:02:29.964Z,7.76
2023-04-06T17:04:57.192Z,7.63
2023-04-06T17:07:32.325Z,7.39
2023-04-06T17:10:01.425Z,7.31
2023-04-06T17:12:31.959Z,7.08
2023-04-06T17:14:59.026Z,6.95
2023-04-06T17:17:26.239Z,6.78
2023-04-06T17:19:53.358Z,6.61
2023-04-06T17:22:23.523Z,6.43
2023-04-06T17:24:50.702Z,6.36
2023-04-06T17:27:19.146Z,6.29
2023-04-06T17:30:03.713Z,6.25
2023-04-06T17:32:31.001Z,6.15
2023-04-06T17:34:58.132Z,6.09
2023-04-06T17:37:25.356Z,6.00
2023-04-06T17:39:52.553Z,5.86
2023-04-06T17:42:19.980Z,5.76
2023-04-06T17:44:53.327Z,5.66
2023-04-06T17:47:20.940Z,5.55
2023-04-06T17:49:49.868Z,5.55
2023-04-06T17:52:17.053Z,5.53
2023-04-06T17:54:47.682Z,5.52
2023-04-06T17:57:20.013Z,5.43
2023-04-06T17:59:47.163Z,5.44
2023-04-06T18:02:15.094Z,5.35
2023-04-06T18:04:44.290Z,5.33
2023-04-06T18:07:11.845Z,5.23
2023-04-06T18:09:39.890Z,5.27
2023-04-06T18:12:07.622Z,5.25
2023-04-06T18:14:34.913Z,5.17
2023-04-06T18:17:02.068Z,5.22
2023-04-06T18:19:32.163Z,5.09
2023-04-06T18:21:59.352Z,5.02
2023-04-06T18:24:41.297Z,5.02
2023-04-06T18:27:11.253Z,4.93
2023-04-06T18:29:39.322Z,4.90
2023-04-06T18:32:06.926Z,4.86
2023-04-06T18:34:34.196Z,4.82
2023-04-06T18:37:02.451Z,4.84
2023-04-06T18:39:29.704Z,4.92
2023-04-06T18:41:57.016Z,4.97
2023-04-06T18:44:24.423Z,4.97
2023-04-06T18:46:54.950Z,5.06
2023-04-06T18:49:22.878Z,5.06
2023-04-06T18:51:50.015Z,5.04
2023-04-06T18:54:17.394Z,5.04
2023-04-06T18:56:46.682Z,5.07
2023-04-06T18:59:14.211Z,4.99
2023-04-06T19:01:47.519Z,5.07
2023-04-06T19:04:18.160Z,5.03
2023-04-06T19:06:54.008Z,5.02
2023-04-06T19:09:21.778Z,4.93
2023-04-06T19:11:49.002Z,4.91
2023-04-06T19:14:16.242Z,4.82
2023-04-06T19:16:53.867Z,4.83
2023-04-06T19:19:21.287Z,4.89
2023-04-06T19:21:49.454Z,4.83
2023-04-06T19:24:18.352Z,4.99
2023-04-06T19:26:46.227Z,5.07
2023-04-06T19:29:16.175Z,5.05
2023-04-06T19:31:43.541Z,5.09
2023-04-06T19:34:11.307Z,5.01
2023-04-06T19:36:41.154Z,4.94
2023-04-06T19:39:08.675Z,4.97
2023-04-06T19:41:39.549Z,5.01
2023-04-06T19:44:07.091Z,5.03
2023-04-06T19:46:40.513Z,5.07
2023-04-06T19:49:07.909Z,5.06
2023-04-06T19:51:36.369Z,4.98
2023-04-06T19:54:06.870Z,4.85
2023-04-06T19:56:34.688Z,4.85
2023-04-06T19:59:01.856Z,4.67
2023-04-06T20:01:29.202Z,4.60
2023-04-06T20:03:56.513Z,4.42
2023-04-06T20:06:33.230Z,4.29
2023-04-06T20:09:01.227Z,4.12
2023-04-06T20:11:28.700Z,4.22
2023-04-06T20:13:58.028Z,3.99
2023-04-06T20:16:28.938Z,4.06
2023-04-06T20:18:58.323Z,4.12
2023-04-06T20:21:26.126Z,3.97
2023-04-06T20:23:53.681Z,4.00
2023-04-06T20:26:21.725Z,3.96
2023-04-06T20:28:48.987Z,3.78
2023-04-06T20:31:19.064Z,3.87
2023-04-06T20:33:46.261Z,3.92
2023-04-06T20:36:13.393Z,3.97
2023-04-06T20:38:40.773Z,4.09
2023-04-06T20:41:08.606Z,4.00
2023-04-06T20:43:36.489Z,3.92
2023-04-06T20:46:04.453Z,3.82
2023-04-06T20:48:33.647Z,3.83
2023-04-06T20:51:06.737Z,3.74
2023-04-06T20:53:36.886Z,3.62
2023-04-06T20:56:04.160Z,3.44
2023-04-06T20:58:31.485Z,3.45
2023-04-06T21:00:58.765Z,3.55
2023-04-06T21:03:28.163Z,3.49
2023-04-06T21:06:00.696Z,3.46
2023-04-06T21:08:27.950Z,3.51
2023-04-06T21:10:55.673Z,3.49
2023-04-06T21:13:22.888Z,3.41
2023-04-06T21:15:51.709Z,3.33
2023-04-06T21:18:19.185Z,3.43
2023-04-06T21:20:46.405Z,3.40
2023-04-06T21:23:13.480Z,3.26
2023-04-06T21:25:40.745Z,3.17
2023-04-06T21:28:07.924Z,3.15
2023-04-06T21:30:39.949Z,3.16
2023-04-06T21:33:07.548Z,2.98
2023-04-06T21:35:38.955Z,2.97
2023-04-06T21:38:06.622Z,2.89
2023-04-06T21:40:33.963Z,2.91
2023-04-06T21:43:01.229Z,2.88
2023-04-06T21:45:31.258Z,2.91
2023-04-06T21:48:01.670Z,2.87
2023-04-06T21:50:31.832Z,2.90
2023-04-06T21:52:58.963Z,2.79
2023-04-06T21:55:26.184Z,2.84
2023-04-06T21:57:53.347Z,2.84
2023-04-06T22:00:21.063Z,2.99
2023-04-06T22:02:48.406Z,3.10
2023-04-06T22:05:15.765Z,2.90
2023-04-06T22:07:46.578Z,2.91
2023-04-06T22:10:14.054Z,2.82
2023-04-06T22:12:44.209Z,2.73
2023-04-06T22:15:13.073Z,2.69
2023-04-06T22:17:43.351Z,2.64
2023-04-06T22:20:10.724Z,2.49
2023-04-06T22:22:38.207Z,2.43
2023-04-06T22:25:09.389Z,2.38
2023-04-06T22:27:36.514Z,2.30
2023-04-06T22:30:06.809Z,2.32
2023-04-06T22:32:33.971Z,2.34
2023-04-06T22:35:01.127Z,2.49
2023-04-06T22:37:31.338Z,2.38
2023-04-06T22:39:58.454Z,2.34
2023-04-06T22:42:27.065Z,2.28
2023-04-06T22:44:54.356Z,2.29
2023-04-06T22:47:21.898Z,2.19
2023-04-06T22:49:50.890Z,2.12
2023-04-06T22:52:18.088Z,2.13
2023-04-06T22:54:45.477Z,2.17
2023-04-06T22:57:12.914Z,2.02
2023-04-06T22:59:40.081Z,1.94
2023-04-06T23:02:07.831Z,1.87
2023-04-06T23:04:35.916Z,1.84
2023-04-06T23:07:03.132Z,1.84
2023-04-06T23:09:30.492Z,1.79
2023-04-06T23:11:57.643Z,1.78
2023-04-06T23:14:30.580Z,1.76
2023-04-06T23:16:57.812Z,1.72
2023-04-06T23:19:25.087Z,1.60
2023-04-06T23:21:52.561Z,1.63
2023-04-06T23:24:19.722Z,1.74
2023-04-06T23:26:46.904Z,1.62
2023-04-06T23:29:14.198Z,1.67
2023-04-06T23:31:41.367Z,1.70
2023-04-06T23:34:09.114Z,1.72
2023-04-06T23:36:37.082Z,1.87
2023-04-06T23:39:04.512Z,1.78
2023-04-06T23:41:31.725Z,1.75
2023-04-06T23:43:59.479Z,1.77
2023-04-06T23:46:26.713Z,1.68
2023-04-06T23:48:53.758Z,1.60
2023-04-06T23:51:21.629Z,1.55
2023-04-06T23:53:48.770Z,1.59
2023-04-06T23:56:16.044Z,1.47
2023-04-06T23:58:43.362Z,1.49
